Hlavní strana
METAR-TAF:

METAR-TAF

Letiště :

Vinnycja, Ukrajina

zeměpisná šířka: 49-14-23N, zeměpisná délka: 028-36-50E, výška: 974 m

Aktuální stav počasí

Zpráva byla vytvořena před 34 minutami, v 12:30 UTC
Západoseverozápadní vítr 8 kt
Teplota 7°C
Vlhkost vzduchu 57%
Tlak 1021 hPa
Viditelnost 10 km a více
Žádná oblačnost pod 1500 m, nevyskytují se cumulonimby.

METAR: UKWW 251230Z 29004MPS CAVOK 07/M01 Q1021 R31/0///65 NOSIG

Čas: 15:04 (13:04 UTC)

Předpověď počasí

Zpráva byla vytvořena před 2 hodinami a 1 minutami, v 11:03 UTC
Předpověď platná od 25 v 12 UTC do 25 v 21 UTC
Západoseverozápadní vítr 12 kt s nárazy do 21 kt
Viditelnost 10 km a více
Oblačno až skoro zataženo ve výšce 3000 ft

TAF: UKWW 251103Z 2512/2521 29006G11MPS 9999 BKN030 TX07/2513Z TN01/2521Z

Stav a předpovědi počasí z více než 4 000 letišť (zprávy METAR a TAF).

Červené a žluté tečky na mapě představují dostupné meteorologické stanice.

Když kurzor umístíte na tečku, zobrazí se název stanice.

Pak kliknutím zobrazíte stav a předpověď počasí.

Chcete-li změnit mapu, kliknutím na zelené tlačítko se znaménkem +mapu přiblížíte, kliknutím na zelené tlačítko se znaménkem – mapu oddálíte a kliknutím na zelené šipky přejdete na sousední mapy.


METAR-TAF: